createdAt,value
2018-02-10T00:00:23.624Z,0
2018-02-10T00:01:23.862Z,0
2018-02-10T00:02:24.107Z,0
2018-02-10T00:03:23.812Z,0
2018-02-10T00:04:24.105Z,0
2018-02-10T00:05:24.028Z,0
2018-02-10T00:06:24.054Z,0
2018-02-10T00:07:23.194Z,0
2018-02-10T00:08:23.696Z,0
2018-02-10T00:09:23.939Z,0
2018-02-10T00:10:23.388Z,0
2018-02-10T00:11:23.896Z,0
2018-02-10T00:12:24.184Z,0
2018-02-10T00:13:23.579Z,0
2018-02-10T00:14:23.558Z,0
2018-02-10T00:15:23.799Z,0
2018-02-10T00:16:23.518Z,0
2018-02-10T00:17:23.782Z,0
2018-02-10T00:18:23.468Z,0
2018-02-10T00:19:23.699Z,0
2018-02-10T00:20:23.152Z,0
2018-02-10T00:21:23.126Z,0
2018-02-10T00:22:23.417Z,0
2018-02-10T00:23:23.094Z,0
2018-02-10T00:24:23.054Z,0
2018-02-10T00:25:23.561Z,0
2018-02-10T00:26:23.011Z,0
2018-02-10T00:27:23.521Z,0
2018-02-10T00:28:23.489Z,0
2018-02-10T00:29:23.200Z,0
2018-02-10T00:30:22.922Z,0
2018-02-10T00:31:22.889Z,0
2018-02-10T00:32:22.918Z,0
2018-02-10T00:33:22.580Z,0
2018-02-10T00:34:23.351Z,0
2018-02-10T00:35:23.059Z,0
2018-02-10T00:36:23.296Z,0
2018-02-10T00:37:23.292Z,0
2018-02-10T00:38:23.512Z,0
2018-02-10T00:39:22.720Z,0
2018-02-10T00:40:23.141Z,0
2018-02-10T00:41:22.921Z,0
2018-02-10T00:42:23.211Z,0
2018-02-10T00:43:22.613Z,0
2018-02-10T00:44:23.111Z,0
2018-02-10T00:45:22.865Z,0
2018-02-10T00:46:23.063Z,0
2018-02-10T00:47:23.042Z,0
2018-02-10T00:48:23.009Z,0
2018-02-10T00:49:22.999Z,0
2018-02-10T00:50:23.228Z,0
2018-02-10T00:51:22.947Z,0
2018-02-10T00:52:22.975Z,0
2018-02-10T00:53:22.637Z,0
2018-02-10T00:54:23.130Z,0
2018-02-10T00:55:22.317Z,0
2018-02-10T00:56:22.297Z,0
2018-02-10T00:57:23.113Z,0
2018-02-10T00:58:22.254Z,0
2018-02-10T00:59:22.490Z,0
2018-02-10T01:00:22.205Z,0
2018-02-10T01:01:22.711Z,0
2018-02-10T01:02:22.732Z,0
2018-02-10T01:03:22.402Z,0
2018-02-10T01:04:22.905Z,0
2018-02-10T01:05:22.088Z,0
2018-02-10T01:06:22.606Z,0
2018-02-10T01:07:22.040Z,0
2018-02-10T01:08:22.552Z,0
2018-02-10T01:09:22.256Z,0
2018-02-10T01:10:21.969Z,0
2018-02-10T01:11:22.415Z,0
2018-02-10T01:12:22.228Z,0
2018-02-10T01:13:22.168Z,0
2018-02-10T01:14:22.137Z,0
2018-02-10T01:15:22.109Z,0
2018-02-10T01:16:22.350Z,0
2018-02-10T01:17:22.071Z,0
2018-02-10T01:18:22.099Z,0
2018-02-10T01:19:22.282Z,0
2018-02-10T01:20:22.273Z,0
2018-02-10T01:21:21.709Z,0
2018-02-10T01:22:22.209Z,0
2018-02-10T01:23:21.977Z,0
2018-02-10T01:24:21.635Z,0
2018-02-10T01:25:22.140Z,0
2018-02-10T01:26:21.597Z,0
2018-02-10T01:27:21.834Z,0
2018-02-10T01:28:22.077Z,0
2018-02-10T01:29:22.313Z,0
2018-02-10T01:30:21.496Z,0
2018-02-10T01:31:21.737Z,0
2018-02-10T01:32:21.452Z,0
2018-02-10T01:33:21.742Z,0
2018-02-10T01:34:21.668Z,0
2018-02-10T01:35:21.642Z,0
2018-02-10T01:36:21.360Z,0
2018-02-10T01:37:21.597Z,0
2018-02-10T01:38:21.313Z,0
2018-02-10T01:39:21.291Z,0
2018-02-10T01:40:21.800Z,0
2018-02-10T01:41:21.771Z,0
2018-02-10T01:42:22.010Z,0
2018-02-10T01:43:21.723Z,0
2018-02-10T01:44:21.482Z,0
2018-02-10T01:45:21.678Z,0
2018-02-10T01:46:21.396Z,0
2018-02-10T01:47:21.109Z,0
2018-02-10T01:48:20.825Z,0
2018-02-10T01:49:21.646Z,0
2018-02-10T01:50:21.037Z,0
2018-02-10T01:51:21.278Z,0
2018-02-10T01:52:21.520Z,0
2018-02-10T01:53:21.225Z,0
2018-02-10T01:54:21.474Z,0
2018-02-10T01:55:21.183Z,0
2018-02-10T01:56:21.161Z,0
2018-02-10T01:57:20.876Z,0
2018-02-10T01:58:21.118Z,0
2018-02-10T01:59:21.411Z,0
2018-02-10T02:00:20.800Z,0
2018-02-10T02:01:20.784Z,0
2018-02-10T02:02:20.765Z,0
2018-02-10T02:03:21.266Z,0
2018-02-10T02:04:20.979Z,0
2018-02-10T02:05:20.955Z,0
2018-02-10T02:06:20.929Z,0
2018-02-10T02:07:20.903Z,0
2018-02-10T02:08:20.356Z,0
2018-02-10T02:09:20.859Z,0
2018-02-10T02:10:20.833Z,0
2018-02-10T02:11:21.078Z,0
2018-02-10T02:12:21.104Z,0
2018-02-10T02:13:21.033Z,0
2018-02-10T02:14:20.525Z,0
2018-02-10T02:15:20.722Z,0
2018-02-10T02:16:20.701Z,0
2018-02-10T02:17:20.675Z,0
2018-02-10T02:18:20.127Z,0
2018-02-10T02:19:20.842Z,0
2018-02-10T02:20:20.863Z,0
2018-02-10T02:21:20.052Z,0
2018-02-10T02:22:21.081Z,0
2018-02-10T02:23:20.542Z,0
2018-02-10T02:24:20.555Z,0
2018-02-10T02:25:20.222Z,0
2018-02-10T02:26:20.471Z,0
2018-02-10T02:27:20.179Z,0
2018-02-10T02:28:20.687Z,0
2018-02-10T02:29:20.400Z,0
2018-02-10T02:30:20.377Z,0
2018-02-10T02:31:20.354Z,0
2018-02-10T02:32:20.859Z,0
2018-02-10T02:33:20.041Z,0
2018-02-10T02:34:20.557Z,0
2018-02-10T02:35:20.273Z,0
2018-02-10T02:36:20.244Z,0
2018-02-10T02:37:19.953Z,0
2018-02-10T02:38:20.189Z,0
2018-02-10T02:39:20.173Z,0
2018-02-10T02:40:20.192Z,0
2018-02-10T02:41:20.137Z,0
2018-02-10T02:42:20.360Z,0
2018-02-10T02:43:20.347Z,0
2018-02-10T02:44:20.052Z,0
2018-02-10T02:45:20.294Z,0
2018-02-10T02:46:20.271Z,0
2018-02-10T02:47:19.994Z,0
2018-02-10T02:48:20.231Z,0
2018-02-10T02:49:20.213Z,0
2018-02-10T02:50:20.176Z,0
2018-02-10T02:51:20.165Z,0
2018-02-10T02:52:19.869Z,0
2018-02-10T02:53:19.590Z,0
2018-02-10T02:54:19.822Z,0
2018-02-10T02:55:19.583Z,0
2018-02-10T02:56:19.789Z,0
2018-02-10T02:57:19.749Z,0
2018-02-10T02:58:20.268Z,0
2018-02-10T02:59:19.711Z,0
2018-02-10T03:00:19.422Z,0
2018-02-10T03:01:19.663Z,0
2018-02-10T03:02:19.910Z,0
2018-02-10T03:03:19.885Z,0
2018-02-10T03:04:19.324Z,0
2018-02-10T03:05:19.568Z,0
2018-02-10T03:06:20.071Z,0
2018-02-10T03:07:19.522Z,0
2018-02-10T03:08:19.494Z,0
2018-02-10T03:09:20.004Z,0
2018-02-10T03:10:19.762Z,0
2018-02-10T03:11:20.158Z,0
2018-02-10T03:12:19.668Z,0
2018-02-10T03:13:19.119Z,0
2018-02-10T03:14:18.832Z,0
2018-02-10T03:15:19.078Z,0
2018-02-10T03:16:19.053Z,0
2018-02-10T03:17:19.558Z,0
2018-02-10T03:18:19.572Z,0
2018-02-10T03:19:19.279Z,0
2018-02-10T03:20:19.481Z,0
2018-02-10T03:21:19.202Z,0
2018-02-10T03:22:18.651Z,0
2018-02-10T03:23:19.418Z,0
2018-02-10T03:24:18.861Z,0
2018-02-10T03:25:19.104Z,0
2018-02-10T03:26:18.865Z,0
2018-02-10T03:27:19.592Z,0
2018-02-10T03:28:19.041Z,0
2018-02-10T03:29:19.277Z,0
2018-02-10T03:30:18.734Z,0
2018-02-10T03:31:19.238Z,0
2018-02-10T03:32:18.417Z,0
2018-02-10T03:33:18.925Z,0
2018-02-10T03:34:18.900Z,0
2018-02-10T03:35:18.885Z,0
2018-02-10T03:36:18.637Z,0
2018-02-10T03:37:18.840Z,0
2018-02-10T03:38:18.810Z,0
2018-02-10T03:39:18.520Z,0
2018-02-10T03:40:18.513Z,0
2018-02-10T03:41:18.470Z,0
2018-02-10T03:42:19.287Z,0
2018-02-10T03:43:19.224Z,0
2018-02-10T03:44:18.667Z,0
2018-02-10T03:45:18.911Z,0
2018-02-10T03:46:18.936Z,0
2018-02-10T03:47:18.924Z,0
2018-02-10T03:48:18.316Z,0
2018-02-10T03:49:18.812Z,0
2018-02-10T03:50:18.528Z,0
2018-02-10T03:51:18.771Z,0
2018-02-10T03:52:18.225Z,0
2018-02-10T03:53:18.988Z,0
2018-02-10T03:54:18.436Z,0
2018-02-10T03:55:18.410Z,0
2018-02-10T03:56:18.704Z,0
2018-02-10T03:57:18.630Z,0
2018-02-10T03:58:18.604Z,0
2018-02-10T03:59:18.331Z,0
2018-02-10T04:00:18.312Z,0
2018-02-10T04:01:17.749Z,0
2018-02-10T04:02:18.267Z,0
2018-02-10T04:03:17.974Z,0
2018-02-10T04:04:18.217Z,0
2018-02-10T04:05:17.920Z,0
2018-02-10T04:06:18.164Z,0
2018-02-10T04:07:18.189Z,0
2018-02-10T04:08:18.137Z,0
2018-02-10T04:09:18.114Z,0
2018-02-10T04:10:17.807Z,0
2018-02-10T04:11:18.301Z,0
2018-02-10T04:12:17.807Z,0
2018-02-10T04:13:18.012Z,0
2018-02-10T04:14:17.980Z,0
2018-02-10T04:15:17.970Z,0
2018-02-10T04:16:17.669Z,0
2018-02-10T04:17:17.956Z,0
2018-02-10T04:18:17.620Z,0
2018-02-10T04:19:17.859Z,0
2018-02-10T04:20:17.835Z,0
2018-02-10T04:21:17.551Z,0
2018-02-10T04:22:17.267Z,0
2018-02-10T04:23:17.787Z,0
2018-02-10T04:24:18.268Z,0
2018-02-10T04:25:17.990Z,0
2018-02-10T04:26:17.963Z,0
2018-02-10T04:27:17.512Z,0
2018-02-10T04:28:17.659Z,0
2018-02-10T04:29:17.886Z,0
2018-02-10T04:30:17.338Z,0
2018-02-10T04:31:17.842Z,0
2018-02-10T04:32:17.340Z,0
2018-02-10T04:33:17.270Z,0
2018-02-10T04:34:17.512Z,0
2018-02-10T04:35:17.227Z,0
2018-02-10T04:36:17.467Z,0
2018-02-10T04:37:17.756Z,0
2018-02-10T04:38:17.425Z,0
2018-02-10T04:39:17.138Z,0
2018-02-10T04:40:17.961Z,0
2018-02-10T04:41:17.087Z,0
2018-02-10T04:42:17.377Z,0
2018-02-10T04:43:17.573Z,0
2018-02-10T04:44:17.282Z,0
2018-02-10T04:45:17.257Z,0
2018-02-10T04:46:16.977Z,0
2018-02-10T04:47:17.474Z,0
2018-02-10T04:48:16.927Z,0
2018-02-10T04:49:17.426Z,0
2018-02-10T04:50:17.407Z,0
2018-02-10T04:51:17.122Z,0
2018-02-10T04:52:17.102Z,0
2018-02-10T04:53:17.125Z,0
2018-02-10T04:54:16.885Z,0
2018-02-10T04:55:17.040Z,0
2018-02-10T04:56:17.271Z,0
2018-02-10T04:57:17.000Z,0
2018-02-10T04:58:17.010Z,0
2018-02-10T04:59:17.222Z,0
2018-02-10T05:00:17.200Z,0
2018-02-10T05:01:17.482Z,0
2018-02-10T05:02:16.893Z,0
2018-02-10T05:03:17.310Z,0
2018-02-10T05:04:17.086Z,0
2018-02-10T05:05:17.067Z,0
2018-02-10T05:06:16.270Z,0
2018-02-10T05:07:16.489Z,0
2018-02-10T05:08:16.744Z,0
2018-02-10T05:09:16.445Z,0
2018-02-10T05:10:16.947Z,0
2018-02-10T05:11:16.798Z,0
2018-02-10T05:12:16.911Z,0
2018-02-10T05:13:17.136Z,0
2018-02-10T05:14:16.596Z,0
2018-02-10T05:15:16.307Z,0
2018-02-10T05:16:16.810Z,0
2018-02-10T05:17:16.783Z,0
2018-02-10T05:18:16.550Z,0
2018-02-10T05:19:16.478Z,0
2018-02-10T05:20:16.981Z,0
2018-02-10T05:21:16.182Z,0
2018-02-10T05:22:16.414Z,0
2018-02-10T05:23:16.119Z,0
2018-02-10T05:24:16.626Z,0
2018-02-10T05:25:16.601Z,0
2018-02-10T05:26:16.311Z,0
2018-02-10T05:27:16.028Z,0
2018-02-10T05:28:16.577Z,0
2018-02-10T05:29:15.717Z,0
2018-02-10T05:30:15.697Z,0
2018-02-10T05:31:16.206Z,0
2018-02-10T05:32:16.182Z,0
2018-02-10T05:33:16.152Z,0
2018-02-10T05:34:16.386Z,0
2018-02-10T05:35:15.848Z,0
2018-02-10T05:36:15.823Z,0
2018-02-10T05:37:15.834Z,0
2018-02-10T05:38:16.306Z,0
2018-02-10T05:39:16.327Z,0
2018-02-10T05:40:16.251Z,0
2018-02-10T05:41:16.235Z,0
2018-02-10T05:42:16.013Z,0
2018-02-10T05:43:15.661Z,0
2018-02-10T05:44:15.894Z,0
2018-02-10T05:45:15.350Z,0
2018-02-10T05:46:16.374Z,0
2018-02-10T05:47:16.098Z,0
2018-02-10T05:48:15.546Z,0
2018-02-10T05:49:15.838Z,0
2018-02-10T05:50:16.022Z,0
2018-02-10T05:51:16.010Z,0
2018-02-10T05:52:15.978Z,0
2018-02-10T05:53:15.948Z,0
2018-02-10T05:54:15.714Z,0
2018-02-10T05:55:15.905Z,0
2018-02-10T05:56:16.146Z,0
2018-02-10T05:57:15.870Z,0
2018-02-10T05:58:15.572Z,0
2018-02-10T05:59:15.864Z,0
2018-02-10T06:00:15.525Z,0
2018-02-10T06:01:15.239Z,0
2018-02-10T06:02:15.744Z,0
2018-02-10T06:03:15.718Z,0
2018-02-10T06:04:15.169Z,0
2018-02-10T06:05:15.675Z,0
2018-02-10T06:06:15.662Z,0
2018-02-10T06:07:15.360Z,0
2018-02-10T06:08:15.075Z,0
2018-02-10T06:09:15.586Z,0
2018-02-10T06:10:15.342Z,0
2018-02-10T06:11:15.278Z,0
2018-02-10T06:12:14.722Z,0
2018-02-10T06:13:15.550Z,0
2018-02-10T06:14:15.209Z,0
2018-02-10T06:15:14.915Z,0
2018-02-10T06:16:15.420Z,0
2018-02-10T06:17:15.445Z,0
2018-02-10T06:18:15.376Z,0
2018-02-10T06:19:15.358Z,0
2018-02-10T06:20:15.115Z,0
2018-02-10T06:21:15.570Z,0
2018-02-10T06:22:15.293Z,0
2018-02-10T06:23:14.735Z,0
2018-02-10T06:24:14.975Z,0
2018-02-10T06:25:15.622Z,0
2018-02-10T06:26:14.937Z,0
2018-02-10T06:27:14.910Z,0
2018-02-10T06:28:14.884Z,0
2018-02-10T06:29:15.129Z,0
2018-02-10T06:30:14.885Z,0
2018-02-10T06:31:15.081Z,0
2018-02-10T06:32:14.785Z,0
2018-02-10T06:33:15.083Z,0
2018-02-10T06:34:14.774Z,0
2018-02-10T06:35:14.721Z,0
2018-02-10T06:36:15.107Z,0
2018-02-10T06:37:14.460Z,0
2018-02-10T06:38:14.771Z,0
2018-02-10T06:39:14.417Z,0
2018-02-10T06:40:15.172Z,0
2018-02-10T06:41:14.320Z,0
2018-02-10T06:42:14.565Z,0
2018-02-10T06:43:14.825Z,0
2018-02-10T06:44:14.513Z,0
2018-02-10T06:45:14.510Z,0
2018-02-10T06:46:13.941Z,0
2018-02-10T06:47:14.708Z,0
2018-02-10T06:48:14.686Z,0
2018-02-10T06:49:14.661Z,0
2018-02-10T06:50:14.431Z,0
2018-02-10T06:51:14.095Z,0
2018-02-10T06:52:14.327Z,0
2018-02-10T06:53:14.308Z,0
2018-02-10T06:54:14.324Z,0
2018-02-10T06:55:14.594Z,0
2018-02-10T06:56:14.493Z,0
2018-02-10T06:57:14.209Z,0
2018-02-10T06:58:14.001Z,0
2018-02-10T06:59:13.649Z,0
2018-02-10T07:00:14.417Z,0
2018-02-10T07:01:14.168Z,0
2018-02-10T07:02:14.357Z,0
2018-02-10T07:03:14.072Z,0
2018-02-10T07:04:14.075Z,0
2018-02-10T07:05:14.292Z,0
2018-02-10T07:06:14.326Z,0
2018-02-10T07:07:13.460Z,0
2018-02-10T07:08:13.959Z,0
2018-02-10T07:09:14.201Z,0
2018-02-10T07:10:13.914Z,0
2018-02-10T07:11:14.139Z,0
2018-02-10T07:12:13.611Z,0
2018-02-10T07:13:14.103Z,0
2018-02-10T07:14:13.824Z,0
2018-02-10T07:15:13.278Z,0
2018-02-10T07:16:13.255Z,5
2018-02-10T07:17:13.750Z,5
2018-02-10T07:18:13.737Z,5
2018-02-10T07:19:14.026Z,5
2018-02-10T07:20:13.943Z,5
2018-02-10T07:21:13.711Z,5
2018-02-10T07:22:13.631Z,5
2018-02-10T07:23:13.350Z,5
2018-02-10T07:24:13.849Z,5
2018-02-10T07:25:13.302Z,5
2018-02-10T07:26:13.859Z,5
2018-02-10T07:27:12.994Z,5
2018-02-10T07:28:13.763Z,5
2018-02-10T07:29:13.207Z,5
2018-02-10T07:30:13.184Z,5
2018-02-10T07:31:13.479Z,5
2018-02-10T07:32:13.412Z,5
2018-02-10T07:33:13.921Z,5
2018-02-10T07:34:13.096Z,5
2018-02-10T07:35:13.335Z,5
2018-02-10T07:36:13.049Z,5
2018-02-10T07:37:13.824Z,5
2018-02-10T07:38:13.526Z,5
2018-02-10T07:39:13.248Z,10
2018-02-10T07:40:12.692Z,10
2018-02-10T07:41:13.470Z,10
2018-02-10T07:42:12.909Z,10
2018-02-10T07:43:13.151Z,10
2018-02-10T07:44:13.132Z,10
2018-02-10T07:45:12.842Z,10
2018-02-10T07:46:12.823Z,10
2018-02-10T07:47:13.129Z,10
2018-02-10T07:48:13.056Z,10
2018-02-10T07:49:13.020Z,10
2018-02-10T07:50:12.984Z,10
2018-02-10T07:51:12.975Z,10
2018-02-10T07:52:13.480Z,15
2018-02-10T07:53:13.192Z,15
2018-02-10T07:54:12.377Z,15
2018-02-10T07:55:13.147Z,15
2018-02-10T07:56:12.850Z,15
2018-02-10T07:57:13.404Z,15
2018-02-10T07:58:12.806Z,15
2018-02-10T07:59:12.838Z,15
2018-02-10T08:00:12.492Z,15
2018-02-10T08:01:13.004Z,15
2018-02-10T08:02:12.194Z,15
2018-02-10T08:03:12.436Z,15
2018-02-10T08:04:12.676Z,15
2018-02-10T08:05:12.671Z,15
2018-02-10T08:06:12.770Z,15
2018-02-10T08:07:12.660Z,20
2018-02-10T08:08:12.583Z,20
2018-02-10T08:09:12.341Z,20
2018-02-10T08:10:12.801Z,20
2018-02-10T08:11:12.516Z,20
2018-02-10T08:12:11.958Z,15
2018-02-10T08:13:12.202Z,20
2018-02-10T08:14:12.433Z,20
2018-02-10T08:15:12.446Z,20
2018-02-10T08:16:12.921Z,20
2018-02-10T08:17:12.420Z,20
2018-02-10T08:18:12.357Z,20
2018-02-10T08:19:12.327Z,20
2018-02-10T08:20:12.038Z,20
2018-02-10T08:21:12.909Z,25
2018-02-10T08:22:12.270Z,25
2018-02-10T08:23:12.231Z,25
2018-02-10T08:24:12.476Z,25
2018-02-10T08:25:12.450Z,25
2018-02-10T08:26:12.159Z,25
2018-02-10T08:27:12.142Z,25
2018-02-10T08:28:11.856Z,25
2018-02-10T08:29:12.357Z,25
2018-02-10T08:30:11.546Z,25
2018-02-10T08:31:12.309Z,30
2018-02-10T08:32:12.025Z,30
2018-02-10T08:33:11.739Z,35
2018-02-10T08:34:11.713Z,35
2018-02-10T08:35:11.691Z,40
2018-02-10T08:36:11.668Z,40
2018-02-10T08:37:11.981Z,40
2018-02-10T08:38:12.152Z,40
2018-02-10T08:39:12.126Z,40
2018-02-10T08:40:11.316Z,40
2018-02-10T08:41:12.083Z,40
2018-02-10T08:42:12.059Z,35
2018-02-10T08:43:12.222Z,35
2018-02-10T08:44:11.775Z,35
2018-02-10T08:45:11.469Z,40
2018-02-10T08:46:11.968Z,45
2018-02-10T08:47:11.787Z,50
2018-02-10T08:48:11.453Z,55
2018-02-10T08:49:11.637Z,60
2018-02-10T08:50:11.351Z,60
2018-02-10T08:51:11.590Z,65
2018-02-10T08:52:11.305Z,70
2018-02-10T08:53:11.748Z,75
2018-02-10T08:54:11.262Z,75
2018-02-10T08:55:11.767Z,75
2018-02-10T08:56:11.484Z,80
2018-02-10T08:57:11.994Z,80
2018-02-10T08:58:11.481Z,85
2018-02-10T08:59:11.145Z,80
2018-02-10T09:00:11.436Z,70
2018-02-10T09:01:11.626Z,60
2018-02-10T09:02:11.605Z,50
2018-02-10T09:03:11.585Z,50
2018-02-10T09:04:11.557Z,50
2018-02-10T09:05:11.020Z,50
2018-02-10T09:06:11.509Z,50
2018-02-10T09:07:10.708Z,50
2018-02-10T09:08:11.257Z,50
2018-02-10T09:09:10.930Z,55
2018-02-10T09:10:10.638Z,55
2018-02-10T09:11:11.398Z,55
2018-02-10T09:12:11.789Z,55
2018-02-10T09:13:10.833Z,50
2018-02-10T09:14:11.346Z,50
2018-02-10T09:15:10.800Z,50
2018-02-10T09:16:11.289Z,55
2018-02-10T09:17:11.009Z,55
2018-02-10T09:18:11.355Z,50
2018-02-10T09:19:10.695Z,50
2018-02-10T09:20:11.459Z,50
2018-02-10T09:21:10.916Z,50
2018-02-10T09:22:10.906Z,55
2018-02-10T09:23:11.401Z,60
2018-02-10T09:24:10.319Z,65
2018-02-10T09:25:10.826Z,70
2018-02-10T09:26:10.804Z,75
2018-02-10T09:27:11.038Z,75
2018-02-10T09:28:10.287Z,70
2018-02-10T09:29:10.476Z,75
2018-02-10T09:30:10.444Z,80
2018-02-10T09:31:10.958Z,80
2018-02-10T09:32:10.693Z,95
2018-02-10T09:33:10.376Z,100
2018-02-10T09:34:11.158Z,105
2018-02-10T09:35:10.607Z,105
2018-02-10T09:36:10.796Z,110
2018-02-10T09:37:10.564Z,105
2018-02-10T09:38:10.858Z,95
2018-02-10T09:39:10.514Z,90
2018-02-10T09:40:10.760Z,90
2018-02-10T09:41:10.527Z,90
2018-02-10T09:42:10.191Z,95
2018-02-10T09:43:10.170Z,95
2018-02-10T09:44:10.666Z,90
2018-02-10T09:45:10.920Z,90
2018-02-10T09:46:10.410Z,85
2018-02-10T09:47:10.715Z,80
2018-02-10T09:48:10.362Z,80
2018-02-10T09:49:10.091Z,75
2018-02-10T09:50:10.310Z,65
2018-02-10T09:51:10.525Z,55
2018-02-10T09:52:10.295Z,55
2018-02-10T09:53:10.481Z,55
2018-02-10T09:54:10.194Z,55
2018-02-10T09:55:10.444Z,45
2018-02-10T09:56:09.875Z,45
2018-02-10T09:57:09.870Z,45
2018-02-10T09:58:10.098Z,45
2018-02-10T09:59:10.651Z,50
2018-02-10T10:00:10.054Z,50
2018-02-10T10:01:10.037Z,50
2018-02-10T10:02:10.279Z,50
2018-02-10T10:03:09.994Z,50
2018-02-10T10:04:09.963Z,55
2018-02-10T10:05:09.946Z,55
2018-02-10T10:06:09.913Z,55
2018-02-10T10:07:09.903Z,55
2018-02-10T10:08:10.145Z,55
2018-02-10T10:09:10.166Z,55
2018-02-10T10:10:09.562Z,55
2018-02-10T10:11:10.065Z,50
2018-02-10T10:12:09.520Z,55
2018-02-10T10:13:10.029Z,55
2018-02-10T10:14:10.376Z,55
2018-02-10T10:15:09.712Z,55
2018-02-10T10:16:09.960Z,55
2018-02-10T10:17:09.939Z,50
2018-02-10T10:18:09.386Z,45
2018-02-10T10:19:09.940Z,45
2018-02-10T10:20:09.614Z,40
2018-02-10T10:21:09.344Z,45
2018-02-10T10:22:09.574Z,45
2018-02-10T10:23:09.542Z,45
2018-02-10T10:24:09.516Z,45
2018-02-10T10:25:09.490Z,40
2018-02-10T10:26:09.855Z,45
2018-02-10T10:27:09.197Z,45
2018-02-10T10:28:09.808Z,45
2018-02-10T10:29:09.726Z,40
2018-02-10T10:30:09.708Z,40
2018-02-10T10:31:09.113Z,45
2018-02-10T10:32:09.336Z,40
2018-02-10T10:33:09.580Z,45
2018-02-10T10:34:09.297Z,45
2018-02-10T10:35:09.710Z,45
2018-02-10T10:36:09.579Z,45
2018-02-10T10:37:09.234Z,45
2018-02-10T10:38:09.212Z,50
2018-02-10T10:39:09.235Z,50
2018-02-10T10:40:09.170Z,55
2018-02-10T10:41:09.137Z,50
2018-02-10T10:42:08.856Z,50
2018-02-10T10:43:09.106Z,45
2018-02-10T10:44:09.091Z,45
2018-02-10T10:45:09.048Z,45
2018-02-10T10:46:09.354Z,55
2018-02-10T10:47:09.000Z,50
2018-02-10T10:48:09.238Z,50
2018-02-10T10:49:09.269Z,50
2018-02-10T10:50:09.199Z,50
2018-02-10T10:51:08.644Z,55
2018-02-10T10:52:09.149Z,55
2018-02-10T10:53:08.604Z,50
2018-02-10T10:54:09.106Z,50
2018-02-10T10:55:09.087Z,50
2018-02-10T10:56:08.796Z,50
2018-02-10T10:57:09.037Z,50
2018-02-10T10:58:08.229Z,50
2018-02-10T10:59:08.476Z,50
2018-02-10T11:00:08.451Z,50
2018-02-10T11:01:08.684Z,55
2018-02-10T11:02:08.402Z,55
2018-02-10T11:03:09.173Z,55
2018-02-10T11:04:08.680Z,55
2018-02-10T11:05:08.076Z,55
2018-02-10T11:06:08.575Z,60
2018-02-10T11:07:08.556Z,55
2018-02-10T11:08:09.077Z,60
2018-02-10T11:09:08.507Z,65
2018-02-10T11:10:08.222Z,70
2018-02-10T11:11:08.732Z,75
2018-02-10T11:12:08.651Z,75
2018-02-10T11:13:08.694Z,65
2018-02-10T11:14:08.400Z,65
2018-02-10T11:15:08.634Z,60
2018-02-10T11:16:08.351Z,55
2018-02-10T11:17:08.596Z,55
2018-02-10T11:18:08.044Z,65
2018-02-10T11:19:08.307Z,65
2018-02-10T11:20:08.001Z,60
2018-02-10T11:21:08.006Z,65
2018-02-10T11:22:07.953Z,60
2018-02-10T11:23:08.196Z,65
2018-02-10T11:24:08.173Z,60
2018-02-10T11:25:08.169Z,60
2018-02-10T11:26:08.134Z,60
2018-02-10T11:27:08.372Z,55
2018-02-10T11:28:08.354Z,55
2018-02-10T11:29:08.342Z,55
2018-02-10T11:30:08.047Z,55
2018-02-10T11:31:07.491Z,60
2018-02-10T11:32:08.272Z,55
2018-02-10T11:33:08.242Z,55
2018-02-10T11:34:07.952Z,55
2018-02-10T11:35:07.929Z,55
2018-02-10T11:36:08.168Z,55
2018-02-10T11:37:07.618Z,55
2018-02-10T11:38:07.859Z,55
2018-02-10T11:39:08.113Z,55
2018-02-10T11:40:07.605Z,50
2018-02-10T11:41:08.069Z,55
2018-02-10T11:42:08.045Z,50
2018-02-10T11:43:07.772Z,45
2018-02-10T11:44:08.258Z,45
2018-02-10T11:45:08.040Z,50
2018-02-10T11:46:07.684Z,55
2018-02-10T11:47:07.664Z,50
2018-02-10T11:48:07.916Z,50
2018-02-10T11:49:07.401Z,50
2018-02-10T11:50:07.608Z,50
2018-02-10T11:51:07.316Z,55
2018-02-10T11:52:07.559Z,55
2018-02-10T11:53:07.267Z,45
2018-02-10T11:54:07.511Z,50
2018-02-10T11:55:07.532Z,50
2018-02-10T11:56:07.498Z,50
2018-02-10T11:57:07.455Z,55
2018-02-10T11:58:07.157Z,50
2018-02-10T11:59:07.662Z,50
2018-02-10T12:00:07.405Z,50
2018-02-10T12:01:07.688Z,45
2018-02-10T12:02:07.341Z,40
2018-02-10T12:03:07.587Z,50
2018-02-10T12:04:07.288Z,50
2018-02-10T12:05:07.010Z,50
2018-02-10T12:06:07.292Z,50
2018-02-10T12:07:07.502Z,50
2018-02-10T12:08:07.811Z,50
2018-02-10T12:09:07.175Z,45
2018-02-10T12:10:07.463Z,45
2018-02-10T12:11:07.474Z,45
2018-02-10T12:12:07.370Z,40
2018-02-10T12:13:07.088Z,45
2018-02-10T12:14:07.332Z,45
2018-02-10T12:15:07.565Z,50
2018-02-10T12:16:07.333Z,55
2018-02-10T12:17:07.269Z,55
2018-02-10T12:18:06.977Z,55
2018-02-10T12:19:06.962Z,55
2018-02-10T12:20:07.657Z,55
2018-02-10T12:21:07.275Z,55
2018-02-10T12:22:07.150Z,55
2018-02-10T12:23:07.134Z,55
2018-02-10T12:24:07.376Z,50
2018-02-10T12:25:06.822Z,50
2018-02-10T12:26:06.537Z,50
2018-02-10T12:27:07.303Z,55
2018-02-10T12:28:06.494Z,50
2018-02-10T12:29:06.998Z,60
2018-02-10T12:30:06.980Z,65
2018-02-10T12:31:06.955Z,60
2018-02-10T12:32:06.711Z,55
2018-02-10T12:33:06.916Z,50
2018-02-10T12:34:06.628Z,50
2018-02-10T12:35:06.333Z,45
2018-02-10T12:36:06.898Z,50
2018-02-10T12:37:06.883Z,50
2018-02-10T12:38:06.793Z,50
2018-02-10T12:39:06.782Z,55
2018-02-10T12:40:06.759Z,55
2018-02-10T12:41:07.045Z,60
2018-02-10T12:42:06.718Z,55
2018-02-10T12:43:06.957Z,55
2018-02-10T12:44:06.401Z,50
2018-02-10T12:45:06.907Z,50
2018-02-10T12:46:06.892Z,55
2018-02-10T12:47:06.971Z,55
2018-02-10T12:48:06.325Z,55
2018-02-10T12:49:06.302Z,55
2018-02-10T12:50:06.801Z,60
2018-02-10T12:51:06.872Z,55
2018-02-10T12:52:06.250Z,60
2018-02-10T12:53:06.468Z,65
2018-02-10T12:54:05.914Z,60
2018-02-10T12:55:06.160Z,55
2018-02-10T12:56:05.919Z,55
2018-02-10T12:57:05.857Z,55
2018-02-10T12:58:06.358Z,50
2018-02-10T12:59:05.822Z,50
2018-02-10T13:00:06.580Z,40
2018-02-10T13:01:05.499Z,40
2018-02-10T13:02:05.480Z,40
2018-02-10T13:03:06.507Z,45
2018-02-10T13:04:06.218Z,45
2018-02-10T13:05:05.709Z,45
2018-02-10T13:06:06.052Z,45
2018-02-10T13:07:05.900Z,50
2018-02-10T13:08:06.137Z,45
2018-02-10T13:09:05.854Z,45
2018-02-10T13:10:05.819Z,45
2018-02-10T13:11:06.327Z,50
2018-02-10T13:12:06.241Z,50
2018-02-10T13:13:05.772Z,50
2018-02-10T13:14:05.750Z,45
2018-02-10T13:15:05.452Z,45
2018-02-10T13:16:05.431Z,45
2018-02-10T13:17:05.998Z,45
2018-02-10T13:18:05.918Z,50
2018-02-10T13:19:05.897Z,45
2018-02-10T13:20:05.078Z,50
2018-02-10T13:21:05.846Z,45
2018-02-10T13:22:05.294Z,45
2018-02-10T13:23:05.536Z,45
2018-02-10T13:24:05.514Z,45
2018-02-10T13:25:05.777Z,45
2018-02-10T13:26:05.734Z,45
2018-02-10T13:27:05.768Z,50
2018-02-10T13:28:05.948Z,50
2018-02-10T13:29:05.403Z,50
2018-02-10T13:30:05.913Z,50
2018-02-10T13:31:05.900Z,50
2018-02-10T13:32:05.129Z,50
2018-02-10T13:33:05.586Z,50
2018-02-10T13:34:05.297Z,50
2018-02-10T13:35:05.274Z,50
2018-02-10T13:36:04.723Z,50
2018-02-10T13:37:04.754Z,50
2018-02-10T13:38:04.939Z,55
2018-02-10T13:39:05.455Z,55
2018-02-10T13:40:05.157Z,55
2018-02-10T13:41:05.403Z,55
2018-02-10T13:42:05.383Z,55
2018-02-10T13:43:05.182Z,55
2018-02-10T13:44:05.072Z,50
2018-02-10T13:45:05.313Z,45
2018-02-10T13:46:05.574Z,40
2018-02-10T13:47:05.053Z,45
2018-02-10T13:48:05.520Z,45
2018-02-10T13:49:04.956Z,45
2018-02-10T13:50:05.206Z,45
2018-02-10T13:51:05.190Z,45
2018-02-10T13:52:04.947Z,45
2018-02-10T13:53:04.620Z,45
2018-02-10T13:54:05.131Z,45
2018-02-10T13:55:04.576Z,35
2018-02-10T13:56:05.082Z,35
2018-02-10T13:57:04.536Z,40
2018-02-10T13:58:04.559Z,35
2018-02-10T13:59:04.218Z,35
2018-02-10T14:00:04.465Z,35
2018-02-10T14:01:04.706Z,40
2018-02-10T14:02:05.203Z,35
2018-02-10T14:03:04.396Z,35
2018-02-10T14:04:04.908Z,35
2018-02-10T14:05:04.611Z,35
2018-02-10T14:06:04.066Z,35
2018-02-10T14:07:04.571Z,35
2018-02-10T14:08:04.071Z,40
2018-02-10T14:09:04.265Z,40
2018-02-10T14:10:04.282Z,35
2018-02-10T14:11:04.482Z,35
2018-02-10T14:12:04.721Z,35
2018-02-10T14:13:04.753Z,35
2018-02-10T14:14:04.483Z,35
2018-02-10T14:15:04.142Z,35
2018-02-10T14:16:04.114Z,40
2018-02-10T14:17:04.088Z,40
2018-02-10T14:18:03.853Z,40
2018-02-10T14:19:04.919Z,40
2018-02-10T14:20:04.288Z,35
2018-02-10T14:21:04.270Z,35
2018-02-10T14:22:03.981Z,35
2018-02-10T14:23:04.221Z,35
2018-02-10T14:24:04.200Z,30
2018-02-10T14:25:03.918Z,25
2018-02-10T14:26:04.162Z,25
2018-02-10T14:27:04.135Z,25
2018-02-10T14:28:04.108Z,30
2018-02-10T14:29:04.618Z,30
2018-02-10T14:30:03.801Z,30
2018-02-10T14:31:04.066Z,30